createdAt,value
2023-04-01T00:00:07.757Z,7.65
2023-04-01T00:05:17.965Z,7.63
2023-04-01T00:10:22.482Z,7.82
2023-04-01T00:15:27.403Z,7.89
2023-04-01T00:20:33.239Z,8.15
2023-04-01T00:25:37.941Z,8.08
2023-04-01T00:30:42.051Z,7.79
2023-04-01T00:35:48.234Z,7.91
2023-04-01T00:40:52.380Z,7.93
2023-04-01T00:45:56.461Z,7.85
2023-04-01T00:51:05.290Z,7.84
2023-04-01T00:56:16.189Z,8.01
2023-04-01T01:01:22.935Z,7.94
2023-04-01T01:06:41.135Z,8.20
2023-04-01T01:11:50.515Z,8.06
2023-04-01T01:17:01.622Z,7.76
2023-04-01T01:22:39.035Z,7.78
2023-04-01T01:27:54.099Z,7.66
2023-04-01T01:33:13.606Z,7.87
2023-04-01T01:38:22.474Z,8.01
2023-04-01T01:43:42.843Z,7.69
2023-04-01T01:48:49.018Z,7.95
2023-04-01T01:53:54.539Z,8.06
2023-04-01T01:59:03.012Z,8.17
2023-04-01T02:04:07.773Z,7.74
2023-04-01T02:09:13.702Z,8.15
2023-04-01T02:14:21.260Z,8.15
2023-04-01T02:19:33.294Z,8.18
2023-04-01T02:24:42.123Z,8.22
2023-04-01T02:29:46.280Z,7.93
2023-04-01T02:34:50.608Z,7.86
2023-04-01T02:39:57.004Z,7.87
2023-04-01T02:45:01.596Z,7.96
2023-04-01T02:50:07.341Z,7.96
2023-04-01T02:55:14.004Z,8.19
2023-04-01T03:00:19.536Z,8.29
2023-04-01T03:05:26.206Z,8.49
2023-04-01T03:10:32.565Z,8.20
2023-04-01T03:15:37.005Z,7.81
2023-04-01T03:20:41.446Z,7.76
2023-04-01T03:25:46.922Z,7.69
2023-04-01T03:30:52.089Z,8.15
2023-04-01T03:35:56.731Z,8.05
2023-04-01T03:41:03.677Z,8.01
2023-04-01T03:46:11.089Z,8.04
2023-04-01T03:51:16.477Z,7.76
2023-04-01T03:56:22.400Z,7.58
2023-04-01T04:01:27.876Z,7.54
2023-04-01T04:06:34.926Z,7.67
2023-04-01T04:11:41.211Z,7.68
2023-04-01T04:16:45.608Z,7.71
2023-04-01T04:21:49.904Z,7.28
2023-04-01T04:26:57.135Z,7.07
2023-04-01T04:32:01.409Z,7.28
2023-04-01T04:37:06.183Z,7.37
2023-04-01T04:42:15.682Z,7.31
2023-04-01T04:47:20.237Z,7.56
2023-04-01T04:52:24.575Z,7.25
2023-04-01T04:57:30.194Z,7.69
2023-04-01T05:02:37.001Z,7.86
2023-04-01T05:07:41.201Z,7.71
2023-04-01T05:12:46.658Z,7.58
2023-04-01T05:17:57.946Z,7.55
2023-04-01T05:23:03.262Z,7.82
2023-04-01T05:28:08.819Z,8.01
2023-04-01T05:33:14.186Z,8.14
2023-04-01T05:38:18.765Z,8.45
2023-04-01T05:43:26.627Z,8.50
2023-04-01T05:48:33.368Z,8.64
2023-04-01T05:53:37.986Z,9.00
2023-04-01T05:58:43.665Z,8.83
2023-04-01T06:03:49.889Z,8.95
2023-04-01T06:08:55.953Z,9.02
2023-04-01T06:14:14.448Z,8.84
2023-04-01T06:19:31.682Z,8.99
2023-04-01T06:25:09.546Z,8.81
2023-04-01T06:30:33.657Z,8.63
2023-04-01T06:36:01.281Z,8.73
2023-04-01T06:41:25.238Z,9.16
2023-04-01T06:46:46.281Z,9.49
2023-04-01T06:52:21.413Z,9.80
2023-04-01T06:57:49.196Z,10.04
2023-04-01T07:02:59.277Z,10.56
2023-04-01T07:08:08.192Z,10.72
2023-04-01T07:13:19.478Z,11.18
2023-04-01T07:18:44.174Z,11.04
2023-04-01T07:23:49.767Z,11.54
2023-04-01T07:29:16.800Z,11.67
2023-04-01T07:34:38.042Z,11.86
2023-04-01T07:39:51.264Z,11.97
2023-04-01T07:45:21.202Z,12.51
2023-04-01T07:50:31.078Z,12.87
2023-04-01T07:55:44.627Z,12.92
2023-04-01T08:00:55.489Z,12.70
2023-04-01T08:06:16.848Z,13.45
2023-04-01T08:11:34.694Z,14.12
2023-04-01T08:17:05.069Z,15.27
2023-04-01T08:22:25.757Z,15.63
2023-04-01T08:27:37.317Z,15.60
2023-04-01T08:32:45.083Z,14.73
2023-04-01T08:37:53.714Z,14.34
2023-04-01T08:43:11.382Z,13.83
2023-04-01T08:48:38.913Z,13.51
2023-04-01T08:54:42.601Z,13.35
2023-04-01T09:00:04.606Z,13.41
2023-04-01T09:05:46.071Z,13.44
2023-04-01T09:11:09.720Z,13.57
2023-04-01T09:16:57.307Z,14.02
2023-04-01T09:22:20.508Z,14.44
2023-04-01T09:27:29.816Z,15.11
2023-04-01T09:33:04.952Z,15.53
2023-04-01T09:38:24.363Z,15.82
2023-04-01T09:43:32.243Z,16.03
2023-04-01T09:49:11.027Z,15.95
2023-04-01T09:54:37.424Z,15.50
2023-04-01T10:00:27.434Z,15.42
2023-04-01T10:06:20.293Z,15.45
2023-04-01T10:11:47.982Z,15.27
2023-04-01T10:17:11.167Z,15.06
2023-04-01T10:22:47.755Z,14.90
2023-04-01T10:28:24.301Z,15.03
2023-04-01T10:34:12.895Z,14.88
2023-04-01T10:40:15.688Z,15.02
2023-04-01T10:46:05.274Z,15.08
2023-04-01T10:51:51.247Z,15.04
2023-04-01T10:57:33.660Z,15.08
2023-04-01T11:03:43.489Z,16.41
2023-04-01T11:09:45.454Z,16.66
2023-04-01T11:15:17.663Z,16.97
2023-04-01T11:21:05.817Z,16.78
2023-04-01T11:26:14.309Z,16.86
2023-04-01T11:31:53.218Z,16.93
2023-04-01T11:37:16.448Z,17.14
2023-04-01T11:42:46.631Z,17.13
2023-04-01T11:48:34.884Z,17.08
2023-04-01T11:53:51.811Z,16.69
2023-04-01T11:59:12.619Z,16.33
2023-04-01T12:04:58.092Z,16.03
2023-04-01T12:10:15.666Z,15.82
2023-04-01T12:15:30.024Z,15.23
2023-04-01T12:20:46.054Z,14.83
2023-04-01T12:26:22.049Z,14.41
2023-04-01T12:31:37.966Z,14.18
2023-04-01T12:36:59.331Z,13.88
2023-04-01T12:42:16.916Z,13.50
2023-04-01T12:47:48.022Z,13.01
2023-04-01T12:53:04.340Z,11.53
2023-04-01T12:58:53.964Z,10.65
2023-04-01T13:04:25.138Z,10.07
2023-04-01T13:09:44.675Z,9.74
2023-04-01T13:15:11.776Z,10.09
2023-04-01T13:20:23.253Z,10.10
2023-04-01T13:25:36.451Z,10.18
2023-04-01T13:30:51.923Z,10.69
2023-04-01T13:36:05.017Z,10.83
2023-04-01T13:41:21.451Z,10.89
2023-04-01T13:46:43.782Z,10.92
2023-04-01T13:52:16.505Z,11.23
2023-04-01T13:57:38.606Z,11.24
2023-04-01T14:02:58.921Z,11.09
2023-04-01T14:08:15.715Z,11.01
2023-04-01T14:13:31.390Z,10.74
2023-04-01T14:19:00.547Z,11.13
2023-04-01T14:24:31.972Z,11.25
2023-04-01T14:29:44.820Z,11.41
2023-04-01T14:35:08.271Z,11.74
2023-04-01T14:40:44.006Z,12.16
2023-04-01T14:46:25.932Z,12.39
2023-04-01T14:51:38.336Z,12.39
2023-04-01T14:56:44.718Z,12.50
2023-04-01T15:01:58.398Z,12.52
2023-04-01T15:07:52.119Z,12.38
2023-04-01T15:13:07.673Z,12.72
2023-04-01T15:18:19.355Z,13.00
2023-04-01T15:23:38.558Z,12.73
2023-04-01T15:28:55.252Z,12.32
2023-04-01T15:34:20.244Z,12.09
2023-04-01T15:39:39.660Z,11.95
2023-04-01T15:45:04.046Z,11.91
2023-04-01T15:50:40.472Z,12.12
2023-04-01T15:55:52.980Z,12.21
2023-04-01T16:01:06.763Z,12.29
2023-04-01T16:06:36.563Z,11.36
2023-04-01T16:11:52.711Z,11.18
2023-04-01T16:17:17.200Z,11.07
2023-04-01T16:22:27.730Z,11.07
2023-04-01T16:27:44.035Z,11.07
2023-04-01T16:32:55.664Z,11.40
2023-04-01T16:38:08.334Z,11.22
2023-04-01T16:43:22.272Z,10.67
2023-04-01T16:48:37.432Z,10.76
2023-04-01T16:53:45.236Z,10.38
2023-04-01T16:59:05.134Z,10.29
2023-04-01T17:04:19.555Z,10.02
2023-04-01T17:09:37.474Z,9.54
2023-04-01T17:14:51.549Z,9.37
2023-04-01T17:20:07.744Z,8.81
2023-04-01T17:25:28.582Z,8.81
2023-04-01T17:30:41.224Z,8.59
2023-04-01T17:35:55.763Z,8.38
2023-04-01T17:41:14.348Z,8.43
2023-04-01T17:52:01.612Z,8.30
2023-04-01T17:57:29.494Z,7.68
2023-04-01T18:02:48.549Z,7.35
2023-04-01T18:08:15.337Z,7.15
2023-04-01T18:13:56.144Z,7.17
2023-04-01T18:19:11.629Z,6.95
2023-04-01T18:24:26.260Z,6.91
2023-04-01T18:29:41.584Z,6.89
2023-04-01T18:34:57.167Z,6.93
2023-04-01T18:40:15.230Z,7.09
2023-04-01T18:45:25.096Z,7.29
2023-04-01T18:50:35.492Z,6.92
2023-04-01T18:55:45.801Z,6.71
2023-04-01T19:00:57.280Z,6.46
2023-04-01T19:06:11.251Z,6.22
2023-04-01T19:11:26.390Z,6.07
2023-04-01T19:16:45.602Z,6.10
2023-04-01T19:21:59.197Z,6.17
2023-04-01T19:27:16.878Z,6.51
2023-04-01T19:32:33.164Z,6.49
2023-04-01T19:37:42.454Z,6.33
2023-04-01T19:42:56.118Z,6.39
2023-04-01T19:48:12.511Z,6.49
2023-04-01T19:53:28.397Z,6.36
2023-04-01T19:58:45.190Z,6.37
2023-04-01T20:03:53.779Z,6.40
2023-04-01T20:09:20.697Z,6.47
2023-04-01T20:14:35.283Z,6.57
2023-04-01T20:19:44.093Z,6.49
2023-04-01T20:24:49.507Z,6.32
2023-04-01T20:30:23.983Z,6.33
2023-04-01T20:35:47.646Z,6.38
2023-04-01T20:40:53.474Z,6.43
2023-04-01T20:46:09.767Z,6.35
2023-04-01T20:51:16.937Z,6.31
2023-04-01T20:56:57.140Z,6.36
2023-04-01T21:02:16.356Z,6.45
2023-04-01T21:07:31.138Z,6.43
2023-04-01T21:12:45.733Z,6.23
2023-04-01T21:18:06.751Z,6.26
2023-04-01T21:23:36.957Z,6.30
2023-04-01T21:28:54.136Z,6.22
2023-04-01T21:34:39.491Z,6.14
2023-04-01T21:40:07.924Z,6.14
2023-04-01T21:45:40.529Z,6.29
2023-04-01T21:51:12.671Z,6.42
2023-04-01T21:56:59.089Z,6.42
2023-04-01T22:02:50.613Z,6.52
2023-04-01T22:08:05.646Z,6.49
2023-04-01T22:13:19.071Z,6.51
2023-04-01T22:18:35.192Z,6.56
2023-04-01T22:23:47.605Z,6.64
2023-04-01T22:29:01.422Z,6.49
2023-04-01T22:34:13.957Z,6.50
2023-04-01T22:39:37.515Z,6.40
2023-04-01T22:44:55.143Z,6.36
2023-04-01T22:50:06.766Z,6.38
2023-04-01T22:55:17.872Z,6.35
2023-04-01T23:00:28.243Z,6.39
2023-04-01T23:05:37.396Z,6.38
2023-04-01T23:10:48.627Z,6.37
2023-04-01T23:15:56.648Z,6.45
2023-04-01T23:21:12.733Z,6.41
2023-04-01T23:26:36.048Z,6.43
2023-04-01T23:31:41.779Z,6.33
2023-04-01T23:36:50.145Z,6.37
2023-04-01T23:41:59.270Z,6.39
2023-04-01T23:47:05.728Z,6.45
2023-04-01T23:52:16.753Z,6.43
2023-04-01T23:57:26.709Z,6.45
